Fehn Companion — V2GH6 — position and weather

sailwx.info

Track history (hours):
 
Tides and Currents Weather Stations Pressure Air Temp Water Temp Dewpoint Dewpoint Depression Visibility Wind Speed Wind Dir Waves Ship Positions

Fehn Companion

Last reported at 2017-Dec-16 11:00 UTC. Time now 2017-Dec-16 11:24 UTC.
Position N 66°18' E 014°07'.

Length 88 m; draft 3 m.

Type: Ship. MMSI: 305937000.

Date/timePositionNaut miles runAvg speedWind from/ knotsBaromVisibWave heightAir tempDewpointWater temp
2017-Dec-16 11:00N 66°18' E 014°07'0 0.0
2017-Dec-16 10:30N 66°18' E 014°07'0 0.0
2017-Dec-16 10:01N 66°18' E 014°07'0 0.0
2017-Dec-16 09:30N 66°18' E 014°07'0 0.0
2017-Dec-16 09:00N 66°18' E 014°07'0 0.0
2017-Dec-16 08:30N 66°18' E 014°07'0 0.0
2017-Dec-16 08:00N 66°18' E 014°07'0 0.0
2017-Dec-16 07:30N 66°18' E 014°07'0 0.0
2017-Dec-16 07:00N 66°18' E 014°07'0 0.0
2017-Dec-16 06:30N 66°18' E 014°07'0 0.0
2017-Dec-16 06:00N 66°18' E 014°07'0 0.0
2017-Dec-16 05:31N 66°18' E 014°07'0 0.0
2017-Dec-16 05:00N 66°18' E 014°07'0 0.8
2017-Dec-16 04:30N 66°18' E 014°06'5 9.5
2017-Dec-16 04:00N 66°16' E 013°55'5 9.7
2017-Dec-16 03:30N 66°15' E 013°43'4 8.8
2017-Dec-16 03:00N 66°15' E 013°33'5 8.9
2017-Dec-16 02:30N 66°14' E 013°21'4 8.4
2017-Dec-16 02:01N 66°12' E 013°13'4 8.5
2017-Dec-16 01:30N 66°10' E 013°03'4 8.4
2017-Dec-16 01:00N 66°09' E 012°53'4 8.3
2017-Dec-16 00:30N 66°12' E 012°45'5 9.3
2017-Dec-16 00:00N 66°14' E 012°35'4 8.6
2017-Dec-15 23:30N 66°15' E 012°24'5 9.1
2017-Dec-15 23:00N 66°17' E 012°14'5 9.7
2017-Dec-15 22:30N 66°19' E 012°03'5 9.7
2017-Dec-15 22:00N 66°22' E 011°53'48 8.7
2017-Dec-15 16:29N 67°05' E 012°45'4 9.0
2017-Dec-15 16:00N 67°08' E 012°52'5 9.5
2017-Dec-15 15:30N 67°12' E 013°00'510.0
2017-Dec-15 15:00N 67°16' E 013°08'5 9.9
2017-Dec-15 14:30N 67°20' E 013°15'5 9.9
2017-Dec-15 14:00N 67°24' E 013°22'510.3
2017-Dec-15 13:30N 67°28' E 013°30'510.5
2017-Dec-15 13:00N 67°33' E 013°38'510.4
2017-Dec-15 12:29N 67°37' E 013°46'510.4
2017-Dec-15 12:00N 67°41' E 013°53'510.5
2017-Dec-15 11:30N 67°45' E 014°02'510.0
2017-Dec-15 11:00N 67°49' E 014°11'5 9.7
2017-Dec-15 10:30N 67°52' E 014°21'5 9.7
2017-Dec-15 10:01N 67°55' E 014°30'5 9.9
2017-Dec-15 09:30N 67°59' E 014°40'5 9.8
2017-Dec-15 09:00N 68°02' E 014°50'5 9.8
2017-Dec-15 08:30N 68°05' E 015°01'5 9.6
2017-Dec-15 07:59N 68°08' E 015°11'5 9.6
2017-Dec-15 07:30N 68°11' E 015°21'2 3.8
2017-Dec-15 07:00N 68°13' E 015°22'5 9.6
2017-Dec-15 06:30N 68°12' E 015°09'5 9.2
2017-Dec-15 06:00N 68°13' E 014°57'5 9.7
2017-Dec-15 05:30N 68°18' E 014°58'5 9.4
2017-Dec-15 05:00N 68°22' E 015°03'510.3
2017-Dec-15 04:30N 68°26' E 015°10'4 8.2
2017-Dec-15 04:00N 68°31' E 015°10'6 4.1
2017-Dec-15 02:30N 68°35' E 014°57'0 0.0
2017-Dec-15 01:00N 68°35' E 014°57'0 0.0
2017-Dec-15 00:30N 68°35' E 014°57'0 0.0
2017-Dec-14 18:30N 68°35' E 014°57'0 0.0
2017-Dec-14 18:00N 68°35' E 014°57'0 0.0
2017-Dec-14 17:30N 68°35' E 014°57'0 0.0
2017-Dec-14 17:00N 68°35' E 014°57'0 0.0
2017-Dec-14 16:30N 68°35' E 014°57'0 0.0
2017-Dec-14 15:58N 68°35' E 014°57'0 0.0
2017-Dec-14 15:00N 68°35' E 014°57'0 0.0
2017-Dec-14 14:30N 68°35' E 014°57'0 0.0
2017-Dec-14 14:00N 68°35' E 014°57'0 0.0
2017-Dec-14 13:30N 68°35' E 014°57'0 0.0
2017-Dec-14 13:00N 68°35' E 014°57'0 0.0
2017-Dec-14 12:30N 68°35' E 014°57'0 0.0
2017-Dec-14 12:00N 68°35' E 014°57'0 0.0
2017-Dec-14 11:30N 68°35' E 014°57'0 0.0
2017-Dec-14 11:00N 68°35' E 014°57'0 0.0
2017-Dec-14 10:30N 68°35' E 014°57'0 0.0
2017-Dec-14 10:00N 68°35' E 014°57'0 0.0
2017-Dec-14 09:30N 68°35' E 014°57'0 0.0
2017-Dec-14 09:00N 68°35' E 014°57'0 0.0
2017-Dec-14 08:28N 68°35' E 014°57'0 0.0
2017-Dec-14 07:58N 68°35' E 014°57'0 0.0
2017-Dec-14 07:28N 68°35' E 014°57'0 0.0
2017-Dec-14 06:58N 68°35' E 014°57'0 0.0
2017-Dec-14 06:28N 68°35' E 014°57'0 0.0
2017-Dec-14 05:58N 68°35' E 014°57'0 0.0
2017-Dec-14 05:28N 68°35' E 014°57'0 0.0
2017-Dec-14 04:58N 68°34' E 014°57'0 0.0
2017-Dec-14 04:28N 68°34' E 014°57'0 0.0
2017-Dec-14 03:58N 68°35' E 014°57'0 0.0
2017-Dec-14 03:28N 68°35' E 014°57'0 0.0
2017-Dec-14 02:58N 68°35' E 014°57'0 0.0
2017-Dec-14 02:28N 68°35' E 014°57'0 0.0
2017-Dec-14 01:58N 68°34' E 014°57'0 0.0
2017-Dec-14 01:28N 68°35' E 014°57'0 0.0
2017-Dec-14 00:58N 68°34' E 014°57'0 0.0
2017-Dec-14 00:28N 68°34' E 014°57'0 0.0
2017-Dec-13 23:58N 68°34' E 014°57'0 0.0
2017-Dec-13 23:28N 68°34' E 014°57'0 0.0
2017-Dec-13 22:58N 68°35' E 014°57'0 0.0
2017-Dec-13 22:28N 68°35' E 014°57'0 0.0
2017-Dec-13 21:58N 68°35' E 014°57'0 0.0
2017-Dec-13 21:28N 68°35' E 014°57'0 0.0
2017-Dec-13 20:58N 68°35' E 014°57'0 0.0
2017-Dec-13 20:28N 68°35' E 014°57'0 0.0
2017-Dec-13 19:58N 68°35' E 014°57'0 0.0
2017-Dec-13 19:28N 68°35' E 014°57'0 0.0
2017-Dec-13 18:58N 68°35' E 014°57'0 0.0
2017-Dec-13 18:28N 68°35' E 014°57'0 0.0
2017-Dec-13 17:58N 68°35' E 014°57'0 0.0
2017-Dec-13 17:28N 68°35' E 014°57'0 0.0
2017-Dec-13 16:58N 68°35' E 014°57'0 0.0
2017-Dec-13 16:28N 68°35' E 014°57'0 0.0
2017-Dec-13 15:58N 68°35' E 014°57'0 0.0
2017-Dec-13 15:28N 68°35' E 014°57'0 0.0
2017-Dec-13 14:58N 68°35' E 014°57'0 0.0
2017-Dec-13 14:30N 68°35' E 014°57'3 5.0
2017-Dec-13 14:00N 68°33' E 015°03'510.0
2017-Dec-13 13:30N 68°30' E 015°12'4 8.7
2017-Dec-13 12:59N 68°25' E 015°08'5 9.7
2017-Dec-13 12:30N 68°21' E 015°02'5 9.3
2017-Dec-13 12:00N 68°17' E 014°58'4 8.4
2017-Dec-13 11:30N 68°13' E 014°60'5 9.8
2017-Dec-13 11:00N 68°13' E 015°13'5 9.8
2017-Dec-13 10:30N 68°13' E 015°26'4 7.6
2017-Dec-13 10:00N 68°13' E 015°36'1 2.3
2017-Dec-13 09:30N 68°12' E 015°34'0 0.6
2017-Dec-13 09:00N 68°12' E 015°33'4 7.3
2017-Dec-13 08:30N 68°10' E 015°24'5 8.9
2017-Dec-13 08:00N 68°08' E 015°15'510.0
2017-Dec-13 07:30N 68°04' E 015°05'5 9.8
2017-Dec-13 07:00N 68°01' E 014°56'5 9.6
2017-Dec-13 06:30N 67°58' E 014°46'5 9.5
2017-Dec-13 06:00N 67°55' E 014°35'5 9.5
2017-Dec-13 05:30N 67°52' E 014°25'5 9.7
2017-Dec-13 05:00N 67°50' E 014°15'5 9.4
2017-Dec-13 04:30N 67°47' E 014°05'5 9.2
2017-Dec-13 04:00N 67°43' E 013°57'5 9.4
2017-Dec-13 03:30N 67°39' E 013°50'5 9.4
2017-Dec-13 03:00N 67°36' E 013°41'5 9.7
2017-Dec-13 02:30N 67°32' E 013°33'5 9.8
2017-Dec-13 02:00N 67°28' E 013°25'5 9.4
2017-Dec-13 01:30N 67°24' E 013°18'5 9.2
2017-Dec-13 01:00N 67°21' E 013°11'5 9.5
2017-Dec-13 00:30N 67°17' E 013°03'301 9.9
2017-Dec-11 17:59N 63°07' E 006°25'510.1
2017-Dec-11 17:29N 63°03' E 006°18'5 9.8
2017-Dec-11 17:00N 62°59' E 006°12'5 9.7
2017-Dec-11 16:30N 62°55' E 006°05'5 9.8
2017-Dec-11 16:00N 62°51' E 005°59'510.0
2017-Dec-11 15:30N 62°47' E 005°52'510.0
2017-Dec-11 15:00N 62°44' E 005°46'5 9.9
2017-Dec-11 14:29N 62°39' E 005°39'5 9.6
2017-Dec-11 14:00N 62°36' E 005°33'5 9.2
2017-Dec-11 13:30N 62°32' E 005°27'5 9.4
2017-Dec-11 13:00N 62°28' E 005°20'5 9.2
2017-Dec-11 12:30N 62°25' E 005°15'5 9.6
2017-Dec-11 12:00N 62°21' E 005°08'5 9.7
2017-Dec-11 11:29N 62°17' E 005°02'510.0
2017-Dec-11 11:00N 62°13' E 004°55'5 9.4
2017-Dec-11 10:30N 62°09' E 004°51'5 9.4
2017-Dec-11 10:00N 62°04' E 004°47'5 9.5
2017-Dec-11 09:30N 62°00' E 004°43'5 9.0
2017-Dec-11 09:00N 61°56' E 004°39'5 9.1
2017-Dec-11 08:30N 61°52' E 004°37'5 9.4
2017-Dec-11 07:59N 61°47' E 004°33'5 9.3
2017-Dec-11 07:30N 61°43' E 004°29'5 9.4
2017-Dec-11 07:00N 61°39' E 004°26'5 9.3
2017-Dec-11 06:30N 61°34' E 004°25'5 9.2
2017-Dec-11 06:00N 61°29' E 004°25'5 9.3
2017-Dec-11 05:30N 61°25' E 004°25'5 9.4
2017-Dec-11 05:00N 61°20' E 004°25'5 9.4
2017-Dec-11 04:30N 61°15' E 004°26'510.1
2017-Dec-11 04:00N 61°10' E 004°26'510.1
2017-Dec-11 03:30N 61°05' E 004°27'510.3
2017-Dec-11 03:00N 61°00' E 004°29'510.2
2017-Dec-11 02:30N 60°55' E 004°29'510.3
2017-Dec-11 02:00N 60°50' E 004°30'510.4
2017-Dec-11 01:30N 60°45' E 004°30'510.4
2017-Dec-11 01:00N 60°39' E 004°29'510.4
2017-Dec-11 00:30N 60°34' E 004°29'5 9.6
2017-Dec-11 00:00N 60°29' E 004°30'5 9.7
2017-Dec-10 23:30N 60°25' E 004°30'5 9.6
2017-Dec-10 23:00N 60°20' E 004°30'5 9.7
2017-Dec-10 22:30N 60°15' E 004°31'5 9.8
2017-Dec-10 22:00N 60°10' E 004°32'5 9.8
2017-Dec-10 21:30N 60°05' E 004°33'5 9.6
2017-Dec-10 21:00N 60°01' E 004°35'5 9.4
2017-Dec-10 20:30N 59°56' E 004°36'5 9.2
2017-Dec-10 20:00N 59°51' E 004°37'5 9.1
2017-Dec-10 19:30N 59°47' E 004°38'5 9.0
2017-Dec-10 19:00N 59°42' E 004°39'5 9.2
2017-Dec-10 18:30N 59°38' E 004°41'5 9.1
2017-Dec-10 18:00N 59°33' E 004°42'26 8.5
2017-Dec-10 14:56N 59°07' E 004°51'4 8.7
2017-Dec-10 14:30N 59°05' E 004°55'4 9.0
2017-Dec-10 14:00N 59°01' E 004°60'5 9.0
2017-Dec-10 13:30N 58°57' E 005°04'5 9.1
2017-Dec-10 13:00N 58°53' E 005°09'5 9.0
2017-Dec-10 12:30N 58°49' E 005°13'4 8.7
2017-Dec-10 12:00N 58°45' E 005°18'5 8.9
2017-Dec-10 11:30N 58°42' E 005°22'5 9.1
2017-Dec-10 11:00N 58°38' E 005°26'4 9.1
2017-Dec-10 10:30N 58°34' E 005°31'4 8.5
2017-Dec-10 10:00N 58°30' E 005°35'4 8.0
2017-Dec-10 09:30N 58°27' E 005°39'4 7.9
2017-Dec-10 09:00N 58°24' E 005°44'4 8.8
2017-Dec-10 08:30N 58°20' E 005°48'4 9.1
2017-Dec-10 08:00N 58°16' E 005°51'4 8.3
2017-Dec-10 07:30N 58°11' E 005°53'4 8.3
2017-Dec-10 07:00N 58°07' E 005°54'5 8.0
2017-Dec-10 06:26N 58°03' E 005°54'170 4.3
2017-Dec-08 15:07N 55°15' E 006°34'2 5.0
2017-Dec-08 14:48N 55°13' E 006°35'1 4.7
2017-Dec-08 14:30N 55°12' E 006°35'2 4.6
2017-Dec-08 14:00N 55°10' E 006°36'2 4.4
2017-Dec-08 13:30N 55°07' E 006°36'2 4.3
2017-Dec-08 13:00N 55°05' E 006°36'2 4.3
2017-Dec-08 12:29N 55°03' E 006°35'2 4.2
2017-Dec-08 12:00N 55°01' E 006°35'2 4.2
2017-Dec-08 11:30N 54°59' E 006°35'2 4.3
2017-Dec-08 11:00N 54°57' E 006°35'3 4.4
2017-Dec-08 10:17N 54°54' E 006°34'2 4.6
2017-Dec-08 09:57N 54°52' E 006°34'  
Track history (hours):
 
Tides and Currents Weather Stations Pressure Air Temp Water Temp Dewpoint Dewpoint Depression Visibility Wind Speed Wind Dir Waves Ship Positions

Fehn Companion

Last reported at 2017-Dec-16 11:00 UTC. Time now 2017-Dec-16 11:24 UTC.
Position N 66°18' E 014°07'.

Length 88 m; draft 3 m.

Type: Ship. MMSI: 305937000.

Date/timePositionNaut miles runAvg speedWind from/ knotsBaromVisibWave heightAir tempDewpointWater temp
2017-Dec-16 11:00N 66°18' E 014°07'0 0.0
2017-Dec-16 10:30N 66°18' E 014°07'0 0.0
2017-Dec-16 10:01N 66°18' E 014°07'0 0.0
2017-Dec-16 09:30N 66°18' E 014°07'0 0.0
2017-Dec-16 09:00N 66°18' E 014°07'0 0.0
2017-Dec-16 08:30N 66°18' E 014°07'0 0.0
2017-Dec-16 08:00N 66°18' E 014°07'0 0.0
2017-Dec-16 07:30N 66°18' E 014°07'0 0.0
2017-Dec-16 07:00N 66°18' E 014°07'0 0.0
2017-Dec-16 06:30N 66°18' E 014°07'0 0.0
2017-Dec-16 06:00N 66°18' E 014°07'0 0.0
2017-Dec-16 05:31N 66°18' E 014°07'0 0.0
2017-Dec-16 05:00N 66°18' E 014°07'0 0.8
2017-Dec-16 04:30N 66°18' E 014°06'5 9.5
2017-Dec-16 04:00N 66°16' E 013°55'5 9.7
2017-Dec-16 03:30N 66°15' E 013°43'4 8.8
2017-Dec-16 03:00N 66°15' E 013°33'5 8.9
2017-Dec-16 02:30N 66°14' E 013°21'4 8.4
2017-Dec-16 02:01N 66°12' E 013°13'4 8.5
2017-Dec-16 01:30N 66°10' E 013°03'4 8.4
2017-Dec-16 01:00N 66°09' E 012°53'4 8.3
2017-Dec-16 00:30N 66°12' E 012°45'5 9.3
2017-Dec-16 00:00N 66°14' E 012°35'4 8.6
2017-Dec-15 23:30N 66°15' E 012°24'5 9.1
2017-Dec-15 23:00N 66°17' E 012°14'5 9.7
2017-Dec-15 22:30N 66°19' E 012°03'5 9.7
2017-Dec-15 22:00N 66°22' E 011°53'48 8.7
2017-Dec-15 16:29N 67°05' E 012°45'4 9.0
2017-Dec-15 16:00N 67°08' E 012°52'5 9.5
2017-Dec-15 15:30N 67°12' E 013°00'510.0
2017-Dec-15 15:00N 67°16' E 013°08'5 9.9
2017-Dec-15 14:30N 67°20' E 013°15'5 9.9
2017-Dec-15 14:00N 67°24' E 013°22'510.3
2017-Dec-15 13:30N 67°28' E 013°30'510.5
2017-Dec-15 13:00N 67°33' E 013°38'510.4
2017-Dec-15 12:29N 67°37' E 013°46'510.4
2017-Dec-15 12:00N 67°41' E 013°53'510.5
2017-Dec-15 11:30N 67°45' E 014°02'510.0
2017-Dec-15 11:00N 67°49' E 014°11'5 9.7
2017-Dec-15 10:30N 67°52' E 014°21'5 9.7
2017-Dec-15 10:01N 67°55' E 014°30'5 9.9
2017-Dec-15 09:30N 67°59' E 014°40'5 9.8
2017-Dec-15 09:00N 68°02' E 014°50'5 9.8
2017-Dec-15 08:30N 68°05' E 015°01'5 9.6
2017-Dec-15 07:59N 68°08' E 015°11'5 9.6
2017-Dec-15 07:30N 68°11' E 015°21'2 3.8
2017-Dec-15 07:00N 68°13' E 015°22'5 9.6
2017-Dec-15 06:30N 68°12' E 015°09'5 9.2
2017-Dec-15 06:00N 68°13' E 014°57'5 9.7
2017-Dec-15 05:30N 68°18' E 014°58'5 9.4
2017-Dec-15 05:00N 68°22' E 015°03'510.3
2017-Dec-15 04:30N 68°26' E 015°10'4 8.2
2017-Dec-15 04:00N 68°31' E 015°10'6 4.1
2017-Dec-15 02:30N 68°35' E 014°57'0 0.0
2017-Dec-15 01:00N 68°35' E 014°57'0 0.0
2017-Dec-15 00:30N 68°35' E 014°57'0 0.0
2017-Dec-14 18:30N 68°35' E 014°57'0 0.0
2017-Dec-14 18:00N 68°35' E 014°57'0 0.0
2017-Dec-14 17:30N 68°35' E 014°57'0 0.0
2017-Dec-14 17:00N 68°35' E 014°57'0 0.0
2017-Dec-14 16:30N 68°35' E 014°57'0 0.0
2017-Dec-14 15:58N 68°35' E 014°57'0 0.0
2017-Dec-14 15:00N 68°35' E 014°57'0 0.0
2017-Dec-14 14:30N 68°35' E 014°57'0 0.0
2017-Dec-14 14:00N 68°35' E 014°57'0 0.0
2017-Dec-14 13:30N 68°35' E 014°57'0 0.0
2017-Dec-14 13:00N 68°35' E 014°57'0 0.0
2017-Dec-14 12:30N 68°35' E 014°57'0 0.0
2017-Dec-14 12:00N 68°35' E 014°57'0 0.0
2017-Dec-14 11:30N 68°35' E 014°57'0 0.0
2017-Dec-14 11:00N 68°35' E 014°57'0 0.0
2017-Dec-14 10:30N 68°35' E 014°57'0 0.0
2017-Dec-14 10:00N 68°35' E 014°57'0 0.0
2017-Dec-14 09:30N 68°35' E 014°57'0 0.0
2017-Dec-14 09:00N 68°35' E 014°57'0 0.0
2017-Dec-14 08:28N 68°35' E 014°57'0 0.0
2017-Dec-14 07:58N 68°35' E 014°57'0 0.0
2017-Dec-14 07:28N 68°35' E 014°57'0 0.0
2017-Dec-14 06:58N 68°35' E 014°57'0 0.0
2017-Dec-14 06:28N 68°35' E 014°57'0 0.0
2017-Dec-14 05:58N 68°35' E 014°57'0 0.0
2017-Dec-14 05:28N 68°35' E 014°57'0 0.0
2017-Dec-14 04:58N 68°34' E 014°57'0 0.0
2017-Dec-14 04:28N 68°34' E 014°57'0 0.0
2017-Dec-14 03:58N 68°35' E 014°57'0 0.0
2017-Dec-14 03:28N 68°35' E 014°57'0 0.0
2017-Dec-14 02:58N 68°35' E 014°57'0 0.0
2017-Dec-14 02:28N 68°35' E 014°57'0 0.0
2017-Dec-14 01:58N 68°34' E 014°57'0 0.0
2017-Dec-14 01:28N 68°35' E 014°57'0 0.0
2017-Dec-14 00:58N 68°34' E 014°57'0 0.0
2017-Dec-14 00:28N 68°34' E 014°57'0 0.0
2017-Dec-13 23:58N 68°34' E 014°57'0 0.0
2017-Dec-13 23:28N 68°34' E 014°57'0 0.0
2017-Dec-13 22:58N 68°35' E 014°57'0 0.0
2017-Dec-13 22:28N 68°35' E 014°57'0 0.0
2017-Dec-13 21:58N 68°35' E 014°57'0 0.0
2017-Dec-13 21:28N 68°35' E 014°57'0 0.0
2017-Dec-13 20:58N 68°35' E 014°57'0 0.0
2017-Dec-13 20:28N 68°35' E 014°57'0 0.0
2017-Dec-13 19:58N 68°35' E 014°57'0 0.0
2017-Dec-13 19:28N 68°35' E 014°57'0 0.0
2017-Dec-13 18:58N 68°35' E 014°57'0 0.0
2017-Dec-13 18:28N 68°35' E 014°57'0 0.0
2017-Dec-13 17:58N 68°35' E 014°57'0 0.0
2017-Dec-13 17:28N 68°35' E 014°57'0 0.0
2017-Dec-13 16:58N 68°35' E 014°57'0 0.0
2017-Dec-13 16:28N 68°35' E 014°57'0 0.0
2017-Dec-13 15:58N 68°35' E 014°57'0 0.0
2017-Dec-13 15:28N 68°35' E 014°57'0 0.0
2017-Dec-13 14:58N 68°35' E 014°57'0 0.0
2017-Dec-13 14:30N 68°35' E 014°57'3 5.0
2017-Dec-13 14:00N 68°33' E 015°03'510.0
2017-Dec-13 13:30N 68°30' E 015°12'4 8.7
2017-Dec-13 12:59N 68°25' E 015°08'5 9.7
2017-Dec-13 12:30N 68°21' E 015°02'5 9.3
2017-Dec-13 12:00N 68°17' E 014°58'4 8.4
2017-Dec-13 11:30N 68°13' E 014°60'5 9.8
2017-Dec-13 11:00N 68°13' E 015°13'5 9.8
2017-Dec-13 10:30N 68°13' E 015°26'4 7.6
2017-Dec-13 10:00N 68°13' E 015°36'1 2.3
2017-Dec-13 09:30N 68°12' E 015°34'0 0.6
2017-Dec-13 09:00N 68°12' E 015°33'4 7.3
2017-Dec-13 08:30N 68°10' E 015°24'5 8.9
2017-Dec-13 08:00N 68°08' E 015°15'510.0
2017-Dec-13 07:30N 68°04' E 015°05'5 9.8
2017-Dec-13 07:00N 68°01' E 014°56'5 9.6
2017-Dec-13 06:30N 67°58' E 014°46'5 9.5
2017-Dec-13 06:00N 67°55' E 014°35'5 9.5
2017-Dec-13 05:30N 67°52' E 014°25'5 9.7
2017-Dec-13 05:00N 67°50' E 014°15'5 9.4
2017-Dec-13 04:30N 67°47' E 014°05'5 9.2
2017-Dec-13 04:00N 67°43' E 013°57'5 9.4
2017-Dec-13 03:30N 67°39' E 013°50'5 9.4
2017-Dec-13 03:00N 67°36' E 013°41'5 9.7
2017-Dec-13 02:30N 67°32' E 013°33'5 9.8
2017-Dec-13 02:00N 67°28' E 013°25'5 9.4
2017-Dec-13 01:30N 67°24' E 013°18'5 9.2
2017-Dec-13 01:00N 67°21' E 013°11'5 9.5
2017-Dec-13 00:30N 67°17' E 013°03'301 9.9
2017-Dec-11 17:59N 63°07' E 006°25'510.1
2017-Dec-11 17:29N 63°03' E 006°18'5 9.8
2017-Dec-11 17:00N 62°59' E 006°12'5 9.7
2017-Dec-11 16:30N 62°55' E 006°05'5 9.8
2017-Dec-11 16:00N 62°51' E 005°59'510.0
2017-Dec-11 15:30N 62°47' E 005°52'510.0
2017-Dec-11 15:00N 62°44' E 005°46'5 9.9
2017-Dec-11 14:29N 62°39' E 005°39'5 9.6
2017-Dec-11 14:00N 62°36' E 005°33'5 9.2
2017-Dec-11 13:30N 62°32' E 005°27'5 9.4
2017-Dec-11 13:00N 62°28' E 005°20'5 9.2
2017-Dec-11 12:30N 62°25' E 005°15'5 9.6
2017-Dec-11 12:00N 62°21' E 005°08'5 9.7
2017-Dec-11 11:29N 62°17' E 005°02'510.0
2017-Dec-11 11:00N 62°13' E 004°55'5 9.4
2017-Dec-11 10:30N 62°09' E 004°51'5 9.4
2017-Dec-11 10:00N 62°04' E 004°47'5 9.5
2017-Dec-11 09:30N 62°00' E 004°43'5 9.0
2017-Dec-11 09:00N 61°56' E 004°39'5 9.1
2017-Dec-11 08:30N 61°52' E 004°37'5 9.4
2017-Dec-11 07:59N 61°47' E 004°33'5 9.3
2017-Dec-11 07:30N 61°43' E 004°29'5 9.4
2017-Dec-11 07:00N 61°39' E 004°26'5 9.3
2017-Dec-11 06:30N 61°34' E 004°25'5 9.2
2017-Dec-11 06:00N 61°29' E 004°25'5 9.3
2017-Dec-11 05:30N 61°25' E 004°25'5 9.4
2017-Dec-11 05:00N 61°20' E 004°25'5 9.4
2017-Dec-11 04:30N 61°15' E 004°26'510.1
2017-Dec-11 04:00N 61°10' E 004°26'510.1
2017-Dec-11 03:30N 61°05' E 004°27'510.3
2017-Dec-11 03:00N 61°00' E 004°29'510.2
2017-Dec-11 02:30N 60°55' E 004°29'510.3
2017-Dec-11 02:00N 60°50' E 004°30'510.4
2017-Dec-11 01:30N 60°45' E 004°30'510.4
2017-Dec-11 01:00N 60°39' E 004°29'510.4
2017-Dec-11 00:30N 60°34' E 004°29'5 9.6
2017-Dec-11 00:00N 60°29' E 004°30'5 9.7
2017-Dec-10 23:30N 60°25' E 004°30'5 9.6
2017-Dec-10 23:00N 60°20' E 004°30'5 9.7
2017-Dec-10 22:30N 60°15' E 004°31'5 9.8
2017-Dec-10 22:00N 60°10' E 004°32'5 9.8
2017-Dec-10 21:30N 60°05' E 004°33'5 9.6
2017-Dec-10 21:00N 60°01' E 004°35'5 9.4
2017-Dec-10 20:30N 59°56' E 004°36'5 9.2
2017-Dec-10 20:00N 59°51' E 004°37'5 9.1
2017-Dec-10 19:30N 59°47' E 004°38'5 9.0
2017-Dec-10 19:00N 59°42' E 004°39'5 9.2
2017-Dec-10 18:30N 59°38' E 004°41'5 9.1
2017-Dec-10 18:00N 59°33' E 004°42'26 8.5
2017-Dec-10 14:56N 59°07' E 004°51'4 8.7
2017-Dec-10 14:30N 59°05' E 004°55'4 9.0
2017-Dec-10 14:00N 59°01' E 004°60'5 9.0
2017-Dec-10 13:30N 58°57' E 005°04'5 9.1
2017-Dec-10 13:00N 58°53' E 005°09'5 9.0
2017-Dec-10 12:30N 58°49' E 005°13'4 8.7
2017-Dec-10 12:00N 58°45' E 005°18'5 8.9
2017-Dec-10 11:30N 58°42' E 005°22'5 9.1
2017-Dec-10 11:00N 58°38' E 005°26'4 9.1
2017-Dec-10 10:30N 58°34' E 005°31'4 8.5
2017-Dec-10 10:00N 58°30' E 005°35'4 8.0
2017-Dec-10 09:30N 58°27' E 005°39'4 7.9
2017-Dec-10 09:00N 58°24' E 005°44'4 8.8
2017-Dec-10 08:30N 58°20' E 005°48'4 9.1
2017-Dec-10 08:00N 58°16' E 005°51'4 8.3
2017-Dec-10 07:30N 58°11' E 005°53'4 8.3
2017-Dec-10 07:00N 58°07' E 005°54'5 8.0
2017-Dec-10 06:26N 58°03' E 005°54'170 4.3
2017-Dec-08 15:07N 55°15' E 006°34'2 5.0
2017-Dec-08 14:48N 55°13' E 006°35'1 4.7
2017-Dec-08 14:30N 55°12' E 006°35'2 4.6
2017-Dec-08 14:00N 55°10' E 006°36'2 4.4
2017-Dec-08 13:30N 55°07' E 006°36'2 4.3
2017-Dec-08 13:00N 55°05' E 006°36'2 4.3
2017-Dec-08 12:29N 55°03' E 006°35'2 4.2
2017-Dec-08 12:00N 55°01' E 006°35'2 4.2
2017-Dec-08 11:30N 54°59' E 006°35'2 4.3
2017-Dec-08 11:00N 54°57' E 006°35'3 4.4
2017-Dec-08 10:17N 54°54' E 006°34'2 4.6
2017-Dec-08 09:57N 54°52' E 006°34'  

Dump ship's entire track history